Sugarloaf, California
Current Conditions -  °F | °C
As of 9:35 PM on Wednesday 26 Nov 2014 (Local Time) from KL35 Reporting Station
Clear Clear  
Wind Chill: 30°   Ceiling: Unl
Heat Index: 30°   Visibility: 7mi
Dew Point: 10°   Wind: 0mph
Humidity: 44%   Direction: NA
Pressure: 30.49"   Gusts: NA
Location:  34.24°N, 116.82°W
Report Text: KL35 270535Z AUTO 00000KT 7SM CLR M01/M12 A3049 RMK AO2
Loading
Personal Weather Stations






























Interactive Weather Map New forecast layout! Learn more

10-Day Weather Forecast

Advertisements
Track Severe Weather on mobile